Portada
METAR-TAF:

METAR-TAF

Aeropuertos :

Kashmar, Irán

latitud: 35-16-14N, longitud: 58-28-24E, altitud: 1110 m

Observación

El informe se hizo hace 1 hora y 5 minutos, a las 22:00 UTC
Viento 10 kt del norte-noreste
Temperatura 3°C
Humedad 65%
Presión 1021 hPa

METAR: OIMQ 242200Z AUTO 03010KT //// // ////// 03/M03 Q1021

Hora: 02:35 (23:05 UTC)


TAF: falta

Observaciones y pronósticos meteorológicos de más de 4000 aeropuertos (mensajes METAR y TAF).

Los puntos amarillos y rojos representan las estaciones disponibles.

Ponga el ratón en el punto deseado para ver el nombre de la estación.

Haga clic para ver las observaciones y los pronósticos meteorológicos.

Para cambiar el mapa : haga clic en los botones verdes con una cruz de color negro para hacer un zoom, en el botón verde con un guión para alejar o en las flechas verdes para mapas adyacentes.


METAR-TAF: